createdAt,value
2023-01-03T00:00:48.453Z,82.87
2023-01-03T00:03:18.523Z,85.08
2023-01-03T00:05:46.642Z,82.64
2023-01-03T00:08:13.601Z,80.45
2023-01-03T00:10:40.449Z,78.45
2023-01-03T00:13:07.083Z,77.13
2023-01-03T00:15:38.435Z,76.58
2023-01-03T00:18:05.369Z,78.45
2023-01-03T00:20:34.544Z,77.27
2023-01-03T00:23:02.382Z,79.28
2023-01-03T00:25:29.976Z,77.67
2023-01-03T00:27:57.104Z,78.96
2023-01-03T00:30:24.015Z,77.88
2023-01-03T00:32:50.858Z,76.93
2023-01-03T00:35:17.590Z,82.30
2023-01-03T00:37:44.489Z,79.03
2023-01-03T00:40:11.836Z,75.92
2023-01-03T00:42:58.604Z,75.98
2023-01-03T00:45:25.867Z,75.79
2023-01-03T00:47:53.339Z,75.37
2023-01-03T00:50:20.256Z,73.73
2023-01-03T00:52:47.137Z,71.32
2023-01-03T00:55:14.077Z,73.08
2023-01-03T00:57:40.915Z,72.30
2023-01-03T01:00:07.946Z,72.23
2023-01-03T01:02:34.897Z,72.59
2023-01-03T01:05:01.963Z,71.06
2023-01-03T01:07:28.940Z,72.25
2023-01-03T01:09:55.791Z,74.50
2023-01-03T01:12:22.451Z,74.25
2023-01-03T01:14:49.353Z,76.10
2023-01-03T01:17:22.228Z,74.38
2023-01-03T01:19:49.635Z,73.83
2023-01-03T01:22:16.584Z,72.94
2023-01-03T01:24:43.555Z,70.00
2023-01-03T01:27:10.697Z,69.54
2023-01-03T01:29:38.643Z,66.20
2023-01-03T01:32:06.037Z,66.40
2023-01-03T01:34:33.247Z,64.68
2023-01-03T01:37:00.355Z,65.53
2023-01-03T01:39:28.643Z,65.51
2023-01-03T01:42:20.779Z,67.55
2023-01-03T01:45:04.512Z,65.66
2023-01-03T01:47:33.645Z,68.42
2023-01-03T01:50:38.399Z,65.57
2023-01-03T01:53:23.848Z,66.15
2023-01-03T01:56:16.061Z,66.60
2023-01-03T01:58:44.406Z,66.56
2023-01-03T02:01:13.374Z,70.48
2023-01-03T02:03:41.912Z,69.73
2023-01-03T02:06:11.056Z,68.95
2023-01-03T02:08:37.943Z,70.33
2023-01-03T02:11:20.649Z,68.77
2023-01-03T02:14:23.219Z,64.26
2023-01-03T02:17:05.923Z,62.75
2023-01-03T02:20:17.782Z,68.62
2023-01-03T02:23:02.523Z,63.50
2023-01-03T02:25:50.662Z,66.18
2023-01-03T02:28:38.527Z,66.27
2023-01-03T02:31:09.528Z,65.04
2023-01-03T02:33:57.999Z,66.84
2023-01-03T02:36:36.157Z,62.79
2023-01-03T02:39:30.063Z,63.83
2023-01-03T02:42:18.542Z,62.26
2023-01-03T02:44:55.759Z,64.71
2023-01-03T02:47:25.896Z,64.78
2023-01-03T02:49:53.272Z,69.88
2023-01-03T02:52:24.299Z,73.93
2023-01-03T02:55:09.012Z,72.96
2023-01-03T02:58:02.276Z,71.52
2023-01-03T03:00:31.808Z,72.41
2023-01-03T03:03:02.714Z,69.82
2023-01-03T03:05:33.941Z,71.42
2023-01-03T03:08:00.852Z,73.90
2023-01-03T03:10:46.954Z,77.22
2023-01-03T03:13:30.587Z,77.30
2023-01-03T03:16:05.906Z,77.88
2023-01-03T03:19:00.088Z,83.75
2023-01-03T03:21:51.376Z,84.33
2023-01-03T03:24:40.004Z,79.91
2023-01-03T03:27:28.363Z,81.79
2023-01-03T03:29:58.424Z,79.77
2023-01-03T03:32:27.522Z,78.77
2023-01-03T03:34:56.441Z,78.95
2023-01-03T03:37:25.448Z,81.86
2023-01-03T03:40:10.801Z,84.30
2023-01-03T03:43:11.095Z,82.86
2023-01-03T03:45:59.796Z,80.93
2023-01-03T03:48:54.044Z,84.32
2023-01-03T03:51:22.487Z,86.34
2023-01-03T03:53:50.857Z,89.83
2023-01-03T03:56:19.534Z,89.88
2023-01-03T03:58:49.929Z,88.79
2023-01-03T04:01:19.421Z,87.75
2023-01-03T04:03:47.787Z,86.58
2023-01-03T04:06:31.629Z,83.10
2023-01-03T04:08:58.781Z,84.88
2023-01-03T04:11:25.666Z,82.70
2023-01-03T04:13:52.512Z,79.42
2023-01-03T04:16:19.247Z,78.13
2023-01-03T04:18:46.133Z,74.44
2023-01-03T04:21:20.229Z,78.62
2023-01-03T04:23:47.745Z,79.47
2023-01-03T04:26:14.675Z,76.74
2023-01-03T04:28:41.516Z,73.97
2023-01-03T04:31:08.395Z,75.45
2023-01-03T04:33:35.344Z,74.61
2023-01-03T04:36:02.201Z,73.62
2023-01-03T04:38:28.917Z,74.45
2023-01-03T04:40:55.806Z,72.57
2023-01-03T04:43:41.358Z,68.23
2023-01-03T04:46:08.259Z,70.26
2023-01-03T04:48:35.116Z,72.47
2023-01-03T04:51:01.761Z,71.25
2023-01-03T04:53:28.655Z,72.86
2023-01-03T04:55:59.264Z,74.78
2023-01-03T04:58:26.339Z,73.37
2023-01-03T05:00:53.318Z,73.34
2023-01-03T05:03:25.848Z,73.75
2023-01-03T05:05:59.197Z,74.19
2023-01-03T05:08:26.309Z,74.80
2023-01-03T05:10:53.796Z,76.50
2023-01-03T05:13:20.785Z,74.37
2023-01-03T05:15:47.741Z,76.54
2023-01-03T05:18:14.797Z,75.38
2023-01-03T05:21:00.238Z,73.72
2023-01-03T05:23:45.948Z,73.11
2023-01-03T05:26:20.312Z,72.54
2023-01-03T05:28:50.027Z,71.36
2023-01-03T05:31:16.909Z,70.27
2023-01-03T05:33:43.811Z,71.72
2023-01-03T05:36:11.154Z,70.67
2023-01-03T05:38:38.666Z,71.66
2023-01-03T05:41:06.168Z,70.68
2023-01-03T05:43:33.309Z,72.35
2023-01-03T05:46:00.284Z,74.99
2023-01-03T05:48:27.270Z,76.41
2023-01-03T05:50:57.544Z,78.89
2023-01-03T05:53:24.951Z,79.74
2023-01-03T05:55:51.888Z,77.37
2023-01-03T05:58:18.860Z,77.78
2023-01-03T06:00:45.723Z,78.67
2023-01-03T06:03:12.467Z,79.16
2023-01-03T06:05:43.282Z,74.53
2023-01-03T06:08:13.292Z,74.50
2023-01-03T06:10:41.111Z,74.93
2023-01-03T06:13:08.171Z,76.72
2023-01-03T06:15:35.008Z,76.63
2023-01-03T06:18:02.867Z,77.67
2023-01-03T06:20:30.409Z,78.82
2023-01-03T06:22:57.883Z,78.41
2023-01-03T06:25:24.939Z,79.58
2023-01-03T06:27:51.860Z,76.91
2023-01-03T06:30:18.962Z,76.39
2023-01-03T06:32:46.132Z,75.35
2023-01-03T06:35:13.187Z,76.50
2023-01-03T06:37:40.327Z,76.74
2023-01-03T06:40:07.885Z,74.71
2023-01-03T06:42:44.447Z,75.88
2023-01-03T06:45:31.649Z,74.92
2023-01-03T06:48:21.748Z,75.91
2023-01-03T06:51:10.918Z,74.87
2023-01-03T06:53:40.249Z,72.28
2023-01-03T06:56:08.205Z,72.49
2023-01-03T06:58:35.905Z,71.00
2023-01-03T07:01:04.398Z,72.31
2023-01-03T07:03:32.363Z,73.79
2023-01-03T07:05:59.781Z,72.78
2023-01-03T07:08:26.709Z,73.41
2023-01-03T07:10:55.028Z,76.02
2023-01-03T07:13:40.455Z,74.73
2023-01-03T07:16:07.574Z,76.61
2023-01-03T07:18:34.473Z,77.62
2023-01-03T07:21:01.359Z,73.08
2023-01-03T07:23:28.209Z,68.65
2023-01-03T07:25:55.647Z,64.84
2023-01-03T07:28:22.742Z,64.45
2023-01-03T07:30:49.903Z,65.91
2023-01-03T07:36:11.006Z,64.88
2023-01-03T07:38:42.368Z,63.65
2023-01-03T07:43:57.890Z,61.81
2023-01-03T07:46:25.450Z,61.25
2023-01-03T08:07:18.958Z,47.39
2023-01-03T08:10:04.309Z,50.72
2023-01-03T08:12:57.455Z,51.88
2023-01-03T08:15:24.477Z,52.78
2023-01-03T08:17:53.937Z,55.17
2023-01-03T08:20:23.880Z,55.86
2023-01-03T08:22:50.772Z,55.78
2023-01-03T08:25:17.692Z,55.17
2023-01-03T08:27:50.006Z,57.87
2023-01-03T08:30:17.448Z,59.40
2023-01-03T08:35:27.108Z,60.78
2023-01-03T08:37:54.470Z,57.03
2023-01-03T08:40:41.885Z,55.73
2023-01-03T08:45:59.610Z,57.24
2023-01-03T08:48:26.634Z,56.99
2023-01-03T08:50:53.513Z,56.50
2023-01-03T08:53:23.052Z,57.15
2023-01-03T08:55:50.084Z,55.99
2023-01-03T08:58:17.307Z,56.76
2023-01-03T09:00:46.196Z,56.32
2023-01-03T09:03:13.294Z,58.99
2023-01-03T09:05:40.448Z,60.10
2023-01-03T09:08:07.586Z,57.82
2023-01-03T09:10:36.298Z,58.45
2023-01-03T09:13:04.712Z,59.27
2023-01-03T09:15:31.597Z,56.70
2023-01-03T09:17:58.411Z,55.54
2023-01-03T09:20:26.307Z,56.14
2023-01-03T09:22:53.459Z,55.26
2023-01-03T09:25:20.319Z,57.93
2023-01-03T09:27:48.103Z,55.78
2023-01-03T09:30:16.160Z,54.71
2023-01-03T09:32:43.051Z,55.05
2023-01-03T09:35:10.318Z,54.05
2023-01-03T09:37:37.220Z,58.24
2023-01-03T09:40:04.548Z,56.40
2023-01-03T09:42:50.107Z,58.28
2023-01-03T09:45:25.060Z,57.65
2023-01-03T09:47:51.969Z,56.14
2023-01-03T09:50:44.457Z,55.41
2023-01-03T09:53:44.043Z,56.04
2023-01-03T09:56:31.032Z,56.34
2023-01-03T09:59:47.831Z,56.75
2023-01-03T10:03:03.379Z,56.47
2023-01-03T10:05:56.090Z,56.63
2023-01-03T10:08:32.023Z,55.05
2023-01-03T10:11:08.335Z,54.27
2023-01-03T10:13:35.208Z,54.21
2023-01-03T10:16:11.254Z,57.92
2023-01-03T10:19:02.774Z,57.84
2023-01-03T10:21:42.637Z,56.04
2023-01-03T10:24:18.660Z,56.35
2023-01-03T10:26:45.567Z,58.21
2023-01-03T10:29:13.707Z,57.81
2023-01-03T10:32:07.829Z,58.51
2023-01-03T10:34:34.750Z,57.46
2023-01-03T10:37:02.404Z,58.62
2023-01-03T10:39:32.561Z,58.23
2023-01-03T10:42:00.492Z,58.98
2023-01-03T10:44:30.055Z,59.51
2023-01-03T10:46:59.631Z,57.54
2023-01-03T10:49:30.638Z,55.38
2023-01-03T10:52:05.134Z,53.50
2023-01-03T10:54:41.297Z,56.34
2023-01-03T10:57:08.326Z,54.67
2023-01-03T10:59:35.770Z,55.40
2023-01-03T11:02:09.011Z,53.09
2023-01-03T11:04:36.163Z,55.41
2023-01-03T11:07:04.880Z,58.44
2023-01-03T11:09:47.012Z,54.95
2023-01-03T11:12:41.673Z,53.69
2023-01-03T11:15:37.627Z,54.06
2023-01-03T11:18:19.427Z,51.92
2023-01-03T11:21:01.329Z,52.80
2023-01-03T11:23:45.107Z,56.42
2023-01-03T11:26:43.173Z,54.33
2023-01-03T11:29:31.780Z,53.67
2023-01-03T11:32:03.140Z,52.82
2023-01-03T11:37:52.444Z,55.73
2023-01-03T11:40:22.134Z,57.60
2023-01-03T11:43:10.454Z,57.24
2023-01-03T11:46:14.163Z,58.21
2023-01-03T11:49:09.936Z,56.54
2023-01-03T11:51:44.981Z,55.34
2023-01-03T11:55:13.117Z,55.51
2023-01-03T11:58:11.857Z,57.32
2023-01-03T12:00:50.834Z,56.72
2023-01-03T12:03:34.801Z,55.56
2023-01-03T12:06:13.814Z,56.13
2023-01-03T12:08:49.187Z,54.04
2023-01-03T12:11:45.321Z,53.17
2023-01-03T12:14:17.867Z,52.75
2023-01-03T12:17:09.054Z,54.36
2023-01-03T12:20:01.561Z,55.80
2023-01-03T12:22:37.396Z,52.84
2023-01-03T12:25:21.684Z,53.27
2023-01-03T12:28:05.674Z,51.83
2023-01-03T12:30:46.454Z,51.46
2023-01-03T12:33:13.345Z,51.33
2023-01-03T12:36:13.029Z,51.30
2023-01-03T12:38:42.939Z,52.42
2023-01-03T12:41:39.282Z,53.60
2023-01-03T12:44:20.265Z,54.24
2023-01-03T12:46:55.707Z,54.84
2023-01-03T12:49:40.890Z,56.33
2023-01-03T12:52:17.038Z,55.76
2023-01-03T12:55:21.475Z,54.96
2023-01-03T12:57:57.559Z,53.98
2023-01-03T13:00:44.761Z,55.34
2023-01-03T13:03:20.770Z,55.88
2023-01-03T13:05:50.549Z,56.26
2023-01-03T13:08:50.085Z,54.83
2023-01-03T13:11:29.240Z,55.30
2023-01-03T13:13:59.628Z,56.19
2023-01-03T13:16:34.615Z,55.37
2023-01-03T13:19:20.302Z,55.43
2023-01-03T13:21:53.021Z,55.12
2023-01-03T13:24:43.355Z,54.51
2023-01-03T13:27:19.663Z,54.24
2023-01-03T13:29:49.522Z,53.50
2023-01-03T13:32:26.216Z,53.51
2023-01-03T13:34:59.347Z,51.35
2023-01-03T13:37:48.066Z,50.38
2023-01-03T13:40:23.283Z,50.40
2023-01-03T13:43:12.358Z,49.24
2023-01-03T13:45:39.357Z,49.62
2023-01-03T13:48:27.216Z,50.50
2023-01-03T13:51:14.421Z,53.07
2023-01-03T13:53:55.035Z,54.04
2023-01-03T13:56:30.554Z,54.51
2023-01-03T13:59:03.913Z,56.04
2023-01-03T14:01:59.716Z,54.52
2023-01-03T14:04:47.576Z,54.97
2023-01-03T14:07:26.540Z,58.84
2023-01-03T14:10:34.480Z,54.54
2023-01-03T14:13:18.458Z,53.17
2023-01-03T14:15:46.086Z,55.43
2023-01-03T14:18:20.994Z,55.23
2023-01-03T14:20:51.567Z,54.89
2023-01-03T14:26:15.178Z,57.53
2023-01-03T14:28:49.683Z,55.49
2023-01-03T14:31:22.771Z,54.43
2023-01-03T14:34:00.964Z,53.80
2023-01-03T14:36:28.048Z,49.51
2023-01-03T14:39:00.030Z,50.60
2023-01-03T14:41:26.844Z,49.25
2023-01-03T14:44:05.153Z,50.87
2023-01-03T14:46:32.616Z,51.46
2023-01-03T14:49:03.758Z,52.87
2023-01-03T14:51:35.540Z,52.42
2023-01-03T14:54:03.742Z,55.34
2023-01-03T14:56:30.910Z,53.36
2023-01-03T14:58:58.487Z,53.61
2023-01-03T15:01:25.603Z,57.26
2023-01-03T15:03:53.005Z,59.82
2023-01-03T15:06:29.807Z,56.04
2023-01-03T15:08:58.780Z,62.34
2023-01-03T15:11:34.309Z,59.99
2023-01-03T15:14:04.234Z,61.46
2023-01-03T15:16:39.579Z,63.46
2023-01-03T15:19:12.580Z,62.21
2023-01-03T15:21:40.072Z,63.19
2023-01-03T15:24:14.878Z,61.77
2023-01-03T15:26:46.314Z,67.85
2023-01-03T15:29:19.839Z,66.30
2023-01-03T15:31:48.096Z,64.28
2023-01-03T15:34:18.415Z,61.55
2023-01-03T15:37:07.594Z,62.57
2023-01-03T15:39:43.045Z,63.86
2023-01-03T15:42:44.558Z,62.07
2023-01-03T15:45:20.091Z,60.91
2023-01-03T15:47:49.140Z,59.11
2023-01-03T15:50:20.641Z,57.10
2023-01-03T15:52:48.602Z,55.87
2023-01-03T15:55:16.752Z,54.30
2023-01-03T15:57:50.085Z,54.79
2023-01-03T16:00:20.822Z,54.42
2023-01-03T16:02:48.786Z,52.52
2023-01-03T16:05:21.666Z,54.59
2023-01-03T16:07:49.769Z,54.49
2023-01-03T16:10:16.708Z,54.78
2023-01-03T16:12:44.126Z,54.33
2023-01-03T16:15:18.543Z,55.49
2023-01-03T16:17:46.177Z,54.55
2023-01-03T16:20:18.058Z,55.18
2023-01-03T16:22:57.391Z,53.95
2023-01-03T16:25:27.841Z,54.65
2023-01-03T16:27:54.766Z,55.68
2023-01-03T16:30:21.935Z,57.30
2023-01-03T16:32:48.806Z,56.30
2023-01-03T16:35:17.740Z,56.26
2023-01-03T16:37:44.739Z,55.51
2023-01-03T16:40:16.849Z,55.24
2023-01-03T16:42:43.754Z,54.07
2023-01-03T16:45:10.992Z,53.17
2023-01-03T16:47:38.001Z,52.55
2023-01-03T16:50:14.202Z,54.25
2023-01-03T16:52:43.896Z,55.62
2023-01-03T16:55:26.804Z,55.31
2023-01-03T16:57:55.109Z,52.66
2023-01-03T17:00:28.314Z,53.23
2023-01-03T17:02:56.374Z,54.23
2023-01-03T17:05:23.746Z,55.26
2023-01-03T17:07:53.333Z,57.41
2023-01-03T17:10:32.314Z,56.58
2023-01-03T17:13:01.981Z,57.21
2023-01-03T17:15:32.283Z,56.62
2023-01-03T17:17:59.129Z,55.46
2023-01-03T17:20:26.005Z,55.95
2023-01-03T17:22:58.770Z,52.44
2023-01-03T17:25:25.818Z,54.13
2023-01-03T17:27:55.869Z,55.37
2023-01-03T17:30:25.036Z,55.65
2023-01-03T17:32:51.963Z,55.49
2023-01-03T17:35:18.903Z,54.94
2023-01-03T17:38:23.411Z,53.91
2023-01-03T17:40:34.265Z,53.87
2023-01-03T17:43:01.833Z,55.72
2023-01-03T17:45:47.404Z,56.03
2023-01-03T17:48:33.008Z,56.37
2023-01-03T17:51:01.845Z,56.07
2023-01-03T17:53:29.177Z,55.27
2023-01-03T17:55:56.040Z,53.32
2023-01-03T17:58:31.406Z,56.33
2023-01-03T18:00:59.101Z,57.18
2023-01-03T18:03:26.563Z,57.48
2023-01-03T18:05:53.819Z,57.93
2023-01-03T18:08:22.239Z,56.75
2023-01-03T18:10:49.634Z,59.68
2023-01-03T18:13:24.745Z,53.98
2023-01-03T18:15:52.155Z,52.58
2023-01-03T18:18:20.752Z,52.58
2023-01-03T18:20:48.012Z,55.22
2023-01-03T18:23:23.561Z,55.24
2023-01-03T18:25:51.510Z,55.69
2023-01-03T18:28:22.705Z,57.64
2023-01-03T18:30:50.084Z,57.46
2023-01-03T18:33:16.979Z,60.05
2023-01-03T18:35:44.191Z,60.57
2023-01-03T18:38:19.420Z,60.04
2023-01-03T18:40:46.262Z,58.75
2023-01-03T18:43:14.189Z,55.66
2023-01-03T18:45:42.291Z,55.95
2023-01-03T18:48:17.439Z,56.66
2023-01-03T18:50:45.589Z,58.83
2023-01-03T18:53:19.804Z,57.09
2023-01-03T18:55:47.020Z,57.62
2023-01-03T18:58:19.616Z,58.72
2023-01-03T19:00:46.482Z,59.12
2023-01-03T19:03:22.759Z,58.57
2023-01-03T19:05:50.304Z,59.02
2023-01-03T19:08:18.359Z,64.13
2023-01-03T19:10:45.577Z,66.66
2023-01-03T19:13:51.201Z,68.88
2023-01-03T19:16:24.104Z,67.90
2023-01-03T19:18:51.727Z,67.73
2023-01-03T19:21:20.154Z,69.64
2023-01-03T19:23:51.617Z,68.12
2023-01-03T19:26:42.988Z,65.79
2023-01-03T19:29:37.143Z,67.13
2023-01-03T19:32:08.302Z,68.03
2023-01-03T19:34:35.218Z,67.49
2023-01-03T19:37:02.165Z,62.77
2023-01-03T19:39:33.756Z,61.92
2023-01-03T19:42:23.105Z,59.12
2023-01-03T19:44:50.332Z,60.24
2023-01-03T19:47:19.116Z,61.60
2023-01-03T19:49:47.405Z,61.24
2023-01-03T19:52:15.336Z,60.76
2023-01-03T19:54:42.592Z,59.19
2023-01-03T19:57:25.717Z,58.04
2023-01-03T19:59:55.415Z,58.43
2023-01-03T20:02:35.812Z,58.27
2023-01-03T20:05:03.722Z,58.71
2023-01-03T20:07:30.663Z,60.93
2023-01-03T20:09:57.516Z,59.27
2023-01-03T20:12:26.305Z,58.85
2023-01-03T20:14:55.095Z,60.45
2023-01-03T20:17:24.098Z,63.29
2023-01-03T20:19:51.391Z,63.18
2023-01-03T20:22:52.991Z,60.80
2023-01-03T20:25:28.039Z,57.72
2023-01-03T20:27:55.675Z,58.47
2023-01-03T20:30:24.838Z,59.43
2023-01-03T20:32:52.292Z,61.28
2023-01-03T20:36:09.811Z,60.26
2023-01-03T20:38:11.194Z,58.67
2023-01-03T20:40:38.268Z,60.11
2023-01-03T20:43:05.672Z,60.47
2023-01-03T20:45:32.820Z,58.17
2023-01-03T20:47:59.999Z,58.58
2023-01-03T20:50:28.940Z,59.23
2023-01-03T20:52:57.364Z,62.83
2023-01-03T20:55:26.107Z,64.93
2023-01-03T20:57:53.109Z,64.95
2023-01-03T21:00:38.789Z,63.34
2023-01-03T21:03:05.987Z,64.44
2023-01-03T21:05:33.011Z,61.70
2023-01-03T21:08:18.488Z,62.17
2023-01-03T21:10:52.732Z,61.08
2023-01-03T21:13:23.240Z,60.43
2023-01-03T21:15:50.612Z,60.45
2023-01-03T21:18:17.659Z,59.69
2023-01-03T21:20:44.811Z,59.38
2023-01-03T21:23:17.321Z,55.85
2023-01-03T21:25:44.582Z,57.53
2023-01-03T21:28:12.278Z,57.82
2023-01-03T21:30:39.805Z,57.24
2023-01-03T21:33:07.013Z,56.11
2023-01-03T21:35:33.943Z,57.89
2023-01-03T21:38:00.767Z,58.66
2023-01-03T21:40:29.811Z,58.84
2023-01-03T21:43:04.178Z,57.80
2023-01-03T21:45:41.993Z,57.19
2023-01-03T21:48:10.514Z,56.47
2023-01-03T21:50:42.344Z,58.31
2023-01-03T21:53:16.988Z,58.66
2023-01-03T21:55:44.045Z,60.25
2023-01-03T21:58:13.909Z,59.51
2023-01-03T22:00:40.997Z,58.77
2023-01-03T22:03:32.800Z,58.37
2023-01-03T22:06:25.899Z,57.57
2023-01-03T22:08:53.424Z,54.96
2023-01-03T22:11:20.944Z,55.74
2023-01-03T22:13:49.171Z,54.81
2023-01-03T22:16:16.892Z,55.03
2023-01-03T22:18:43.831Z,55.51
2023-01-03T22:21:11.282Z,56.62
2023-01-03T22:23:39.511Z,55.52
2023-01-03T22:26:11.421Z,58.41
2023-01-03T22:28:40.577Z,57.38
2023-01-03T22:31:12.884Z,57.38
2023-01-03T22:33:40.277Z,58.58
2023-01-03T22:36:08.489Z,57.62
2023-01-03T22:38:36.601Z,57.16
2023-01-03T22:41:08.815Z,56.87
2023-01-03T22:43:35.852Z,56.41
2023-01-03T22:46:07.314Z,57.56
2023-01-03T22:48:34.263Z,57.94
2023-01-03T22:51:09.543Z,57.81
2023-01-03T22:53:41.443Z,58.24
2023-01-03T22:56:10.990Z,57.66
2023-01-03T22:58:38.377Z,58.53
2023-01-03T23:01:13.191Z,57.96
2023-01-03T23:03:40.263Z,53.87
2023-01-03T23:06:08.762Z,54.73
2023-01-03T23:08:36.044Z,59.51
2023-01-03T23:11:31.480Z,59.18
2023-01-03T23:14:02.030Z,58.39
2023-01-03T23:16:28.938Z,56.91
2023-01-03T23:18:55.860Z,58.59
2023-01-03T23:21:22.737Z,58.23
2023-01-03T23:23:50.592Z,57.26
2023-01-03T23:26:17.712Z,56.86
2023-01-03T23:28:44.816Z,56.50
2023-01-03T23:31:11.839Z,58.66
2023-01-03T23:33:38.831Z,59.72
2023-01-03T23:36:06.830Z,59.09
2023-01-03T23:38:33.770Z,59.65
2023-01-03T23:41:06.190Z,56.20
2023-01-03T23:43:34.170Z,56.94
2023-01-03T23:46:01.237Z,57.89
2023-01-03T23:48:28.657Z,57.28
2023-01-03T23:51:02.550Z,56.30
2023-01-03T23:53:29.380Z,57.23
2023-01-03T23:55:56.369Z,56.83
2023-01-03T23:58:23.247Z,57.14
